sensor_id;sensor_type;location;lat;lon;timestamp;pressure;altitude;pressure_sealevel;temperature;humidity
71956;BME280;59829;50.562;6.258;2024-03-08T00:07:11;95541.72;;;10.70;70.37
71956;BME280;59829;50.562;6.258;2024-03-08T00:17:13;95538.63;;;10.67;69.93
71956;BME280;59829;50.562;6.258;2024-03-08T00:27:13;95535.38;;;10.65;69.66
71956;BME280;59829;50.562;6.258;2024-03-08T00:37:15;95523.50;;;10.64;69.57
71956;BME280;59829;50.562;6.258;2024-03-08T00:47:16;95521.88;;;10.63;69.58
71956;BME280;59829;50.562;6.258;2024-03-08T00:57:16;95517.56;;;10.63;69.53
71956;BME280;59829;50.562;6.258;2024-03-08T01:07:16;95499.50;;;10.65;69.47
71956;BME280;59829;50.562;6.258;2024-03-08T01:17:17;95492.09;;;10.62;69.42
71956;BME280;59829;50.562;6.258;2024-03-08T01:27:17;95483.72;;;10.60;69.40
71956;BME280;59829;50.562;6.258;2024-03-08T01:37:17;95468.59;;;10.56;69.44
71956;BME280;59829;50.562;6.258;2024-03-08T01:47:18;95469.53;;;10.55;69.48
71956;BME280;59829;50.562;6.258;2024-03-08T01:57:18;95452.56;;;10.54;69.46
71956;BME280;59829;50.562;6.258;2024-03-08T02:07:19;95439.06;;;10.52;69.38
71956;BME280;59829;50.562;6.258;2024-03-08T02:17:19;95428.16;;;10.50;69.45
71956;BME280;59829;50.562;6.258;2024-03-08T02:27:23;95417.22;;;10.48;69.32
71956;BME280;59829;50.562;6.258;2024-03-08T02:37:25;95406.31;;;10.46;69.42
71956;BME280;59829;50.562;6.258;2024-03-08T02:47:26;95409.16;;;10.43;69.34
71956;BME280;59829;50.562;6.258;2024-03-08T02:57:27;95394.72;;;10.42;69.25
71956;BME280;59829;50.562;6.258;2024-03-08T03:07:27;95386.34;;;10.40;69.32
71956;BME280;59829;50.562;6.258;2024-03-08T03:17:27;95380.53;;;10.38;69.06
71956;BME280;59829;50.562;6.258;2024-03-08T03:27:28;95369.63;;;10.36;69.02
71956;BME280;59829;50.562;6.258;2024-03-08T03:37:30;95360.31;;;10.35;68.96
71956;BME280;59829;50.562;6.258;2024-03-08T03:47:30;95364.09;;;10.31;68.81
71956;BME280;59829;50.562;6.258;2024-03-08T03:57:31;95347.13;;;10.30;68.83
71956;BME280;59829;50.562;6.258;2024-03-08T04:07:31;95347.13;;;10.30;68.69
71956;BME280;59829;50.562;6.258;2024-03-08T04:17:33;95339.56;;;10.29;68.56
71956;BME280;59829;50.562;6.258;2024-03-08T04:27:37;95327.19;;;10.24;68.43
71956;BME280;59829;50.562;6.258;2024-03-08T04:37:37;95324.63;;;10.24;68.39
71956;BME280;59829;50.562;6.258;2024-03-08T04:47:37;95314.63;;;10.21;68.03
71956;BME280;59829;50.562;6.258;2024-03-08T04:57:39;95299.50;;;10.18;67.85
71956;BME280;59829;50.562;6.258;2024-03-08T05:07:39;95288.59;;;10.16;67.70
71956;BME280;59829;50.562;6.258;2024-03-08T05:17:40;95292.22;;;10.13;67.67
71956;BME280;59829;50.562;6.258;2024-03-08T05:27:43;95282.13;;;10.12;67.24
71956;BME280;59829;50.562;6.258;2024-03-08T05:37:43;95266.22;;;10.08;67.22
71956;BME280;59829;50.562;6.258;2024-03-08T05:47:43;95270.53;;;10.08;67.01
71956;BME280;59829;50.562;6.258;2024-03-08T05:57:44;95268.91;;;10.07;67.02
71956;BME280;59829;50.562;6.258;2024-03-08T06:07:45;95262.16;;;10.06;67.00
71956;BME280;59829;50.562;6.258;2024-03-08T06:17:45;95250.09;;;9.37;65.79
71956;BME280;59829;50.562;6.258;2024-03-08T06:27:46;95244.66;;;8.69;64.90
71956;BME280;59829;50.562;6.258;2024-03-08T06:37:46;95247.81;;;8.30;64.25
71956;BME280;59829;50.562;6.258;2024-03-08T06:47:47;95247.56;;;8.01;63.80
71956;BME280;59829;50.562;6.258;2024-03-08T06:57:48;95253.06;;;7.85;63.57
71956;BME280;59829;50.562;6.258;2024-03-08T07:07:48;95255.38;;;7.77;63.52
71956;BME280;59829;50.562;6.258;2024-03-08T07:17:49;95243.78;;;7.73;63.35
71956;BME280;59829;50.562;6.258;2024-03-08T07:27:54;95235.47;;;7.71;63.24
71956;BME280;59829;50.562;6.258;2024-03-08T07:37:55;95217.50;;;7.72;63.17
71956;BME280;59829;50.562;6.258;2024-03-08T07:47:55;95215.63;;;7.74;63.24
71956;BME280;59829;50.562;6.258;2024-03-08T07:57:56;95211.09;;;7.78;63.02
71956;BME280;59829;50.562;6.258;2024-03-08T08:07:56;95199.63;;;7.83;63.21
71956;BME280;59829;50.562;6.258;2024-03-08T08:17:56;95195.78;;;7.89;63.24
71956;BME280;59829;50.562;6.258;2024-03-08T08:27:57;95192.06;;;7.93;63.20
71956;BME280;59829;50.562;6.258;2024-03-08T08:37:57;95172.81;;;8.00;63.29
71956;BME280;59829;50.562;6.258;2024-03-08T08:47:59;95163.03;;;8.05;63.27
71956;BME280;59829;50.562;6.258;2024-03-08T08:57:59;95148.16;;;8.10;63.25
71956;BME280;59829;50.562;6.258;2024-03-08T09:08:00;95138.84;;;8.21;63.28
71956;BME280;59829;50.562;6.258;2024-03-08T09:18:00;95133.84;;;8.51;63.85
71956;BME280;59829;50.562;6.258;2024-03-08T09:28:01;95119.72;;;8.77;64.02
71956;BME280;59829;50.562;6.258;2024-03-08T09:38:01;95111.63;;;9.03;64.43
71956;BME280;59829;50.562;6.258;2024-03-08T09:48:02;95093.22;;;9.19;64.57
71956;BME280;59829;50.562;6.258;2024-03-08T09:58:05;95088.00;;;9.30;65.03
71956;BME280;59829;50.562;6.258;2024-03-08T10:08:24;95076.88;;;9.41;65.31
71956;BME280;59829;50.562;6.258;2024-03-08T10:18:26;95074.16;;;9.52;65.59
71956;BME280;59829;50.562;6.258;2024-03-08T10:28:27;95066.91;;;9.57;65.67
71956;BME280;59829;50.562;6.258;2024-03-08T10:38:31;95052.66;;;9.64;66.05
71956;BME280;59829;50.562;6.258;2024-03-08T10:48:45;95037.03;;;9.67;66.26
71956;BME280;59829;50.562;6.258;2024-03-08T10:58:49;95031.63;;;9.70;66.34
71956;BME280;59829;50.562;6.258;2024-03-08T11:08:50;95019.28;;;9.75;66.50
71956;BME280;59829;50.562;6.258;2024-03-08T11:19:01;94999.19;;;9.80;66.67
71956;BME280;59829;50.562;6.258;2024-03-08T11:39:36;94992.84;;;9.94;66.90
71956;BME280;59829;50.562;6.258;2024-03-08T11:49:38;94976.41;;;9.96;67.06
71956;BME280;59829;50.562;6.258;2024-03-08T11:59:40;94966.69;;;10.00;67.25
71956;BME280;59829;50.562;6.258;2024-03-08T12:09:40;94973.19;;;9.94;67.05
71956;BME280;59829;50.562;6.258;2024-03-08T12:19:47;94957.56;;;9.97;67.12
71956;BME280;59829;50.562;6.258;2024-03-08T12:29:47;94941.91;;;10.01;66.99
71956;BME280;59829;50.562;6.258;2024-03-08T12:39:48;94935.19;;;10.00;66.86
71956;BME280;59829;50.562;6.258;2024-03-08T12:49:48;94935.47;;;9.96;66.76
71956;BME280;59829;50.562;6.258;2024-03-08T12:59:48;94916.34;;;10.01;66.57
71956;BME280;59829;50.562;6.258;2024-03-08T13:09:54;94893.44;;;10.09;66.36
71956;BME280;59829;50.562;6.258;2024-03-08T13:19:55;94885.16;;;10.15;66.01
71956;BME280;59829;50.562;6.258;2024-03-08T13:29:57;94867.78;;;10.28;65.75
71956;BME280;59829;50.562;6.258;2024-03-08T13:39:58;94844.81;;;10.36;65.79
71956;BME280;59829;50.562;6.258;2024-03-08T13:49:58;94826.03;;;10.45;65.52
71956;BME280;59829;50.562;6.258;2024-03-08T13:59:59;94827.41;;;10.57;65.31
71956;BME280;59829;50.562;6.258;2024-03-08T14:09:59;94800.44;;;10.63;65.16
71956;BME280;59829;50.562;6.258;2024-03-08T14:20:00;94791.03;;;10.72;65.09
71956;BME280;59829;50.562;6.258;2024-03-08T14:30:00;94775.31;;;11.10;65.72
71956;BME280;59829;50.562;6.258;2024-03-08T14:40:01;94769.03;;;11.31;66.21
71956;BME280;59829;50.562;6.258;2024-03-08T14:50:01;94759.78;;;11.38;66.57
71956;BME280;59829;50.562;6.258;2024-03-08T15:00:02;94754.00;;;11.36;66.47
71956;BME280;59829;50.562;6.258;2024-03-08T15:10:07;94742.06;;;11.27;66.10
71956;BME280;59829;50.562;6.258;2024-03-08T15:20:11;94737.00;;;11.35;65.95
71956;BME280;59829;50.562;6.258;2024-03-08T15:30:16;94717.28;;;11.69;66.24
71956;BME280;59829;50.562;6.258;2024-03-08T15:40:17;94709.66;;;11.94;66.45
71956;BME280;59829;50.562;6.258;2024-03-08T15:50:21;94706.66;;;12.06;66.43
71956;BME280;59829;50.562;6.258;2024-03-08T16:00:23;94698.81;;;12.16;66.25
71956;BME280;59829;50.562;6.258;2024-03-08T16:10:47;94687.91;;;12.22;66.03
71956;BME280;59829;50.562;6.258;2024-03-08T16:20:55;94688.38;;;12.26;66.11
71956;BME280;59829;50.562;6.258;2024-03-08T16:30:56;94682.59;;;12.32;65.88
71956;BME280;59829;50.562;6.258;2024-03-08T16:40:56;94689.84;;;12.36;65.87
71956;BME280;59829;50.562;6.258;2024-03-08T16:50:59;94684.84;;;12.43;65.73
71956;BME280;59829;50.562;6.258;2024-03-08T17:00:59;94686.13;;;12.47;65.66
71956;BME280;59829;50.562;6.258;2024-03-08T17:11:00;94694.00;;;12.46;65.63
71956;BME280;59829;50.562;6.258;2024-03-08T17:21:00;94691.75;;;12.43;65.91
71956;BME280;59829;50.562;6.258;2024-03-08T17:31:00;94694.66;;;12.40;65.99
71956;BME280;59829;50.562;6.258;2024-03-08T17:41:01;94693.34;;;12.44;66.49
71956;BME280;59829;50.562;6.258;2024-03-08T17:51:01;94678.25;;;12.49;66.64
71956;BME280;59829;50.562;6.258;2024-03-08T18:01:02;94687.59;;;12.42;66.79
71956;BME280;59829;50.562;6.258;2024-03-08T18:11:03;94692.88;;;12.32;67.03
71956;BME280;59829;50.562;6.258;2024-03-08T18:21:04;94680.50;;;12.27;67.44
71956;BME280;59829;50.562;6.258;2024-03-08T18:31:05;94654.03;;;12.27;67.70
71956;BME280;59829;50.562;6.258;2024-03-08T18:41:05;94645.69;;;12.25;67.92
71956;BME280;59829;50.562;6.258;2024-03-08T18:51:07;94656.13;;;12.23;68.09
71956;BME280;59829;50.562;6.258;2024-03-08T19:01:08;94660.28;;;12.24;68.10
71956;BME280;59829;50.562;6.258;2024-03-08T19:11:08;94651.94;;;12.22;68.22
71956;BME280;59829;50.562;6.258;2024-03-08T19:21:09;94635.91;;;12.20;68.29
71956;BME280;59829;50.562;6.258;2024-03-08T19:31:09;94637.69;;;12.20;68.30
71956;BME280;59829;50.562;6.258;2024-03-08T19:41:09;94625.16;;;12.17;68.43
71956;BME280;59829;50.562;6.258;2024-03-08T19:51:12;94625.97;;;12.17;68.45
71956;BME280;59829;50.562;6.258;2024-03-08T20:01:13;94627.72;;;12.17;68.48
71956;BME280;59829;50.562;6.258;2024-03-08T20:11:15;94620.19;;;12.15;68.56
71956;BME280;59829;50.562;6.258;2024-03-08T20:21:15;94625.97;;;12.17;68.60
71956;BME280;59829;50.562;6.258;2024-03-08T20:31:16;94633.03;;;12.15;68.56
71956;BME280;59829;50.562;6.258;2024-03-08T20:41:16;94621.00;;;12.16;68.70
71956;BME280;59829;50.562;6.258;2024-03-08T20:51:16;94618.56;;;12.14;68.65
71956;BME280;59829;50.562;6.258;2024-03-08T21:01:17;94602.22;;;12.15;68.63
71956;BME280;59829;50.562;6.258;2024-03-08T21:11:18;94598.81;;;12.15;68.82
71956;BME280;59829;50.562;6.258;2024-03-08T21:21:18;94605.59;;;12.16;68.75
71956;BME280;59829;50.562;6.258;2024-03-08T21:31:18;94604.78;;;12.15;68.71
71956;BME280;59829;50.562;6.258;2024-03-08T21:41:23;94591.13;;;12.15;68.74
71956;BME280;59829;50.562;6.258;2024-03-08T21:51:23;94585.84;;;12.16;68.75
71956;BME280;59829;50.562;6.258;2024-03-08T22:01:24;94570.47;;;12.16;68.82
71956;BME280;59829;50.562;6.258;2024-03-08T22:11:24;94566.94;;;12.17;68.76
71956;BME280;59829;50.562;6.258;2024-03-08T22:21:24;94572.06;;;12.17;68.91
71956;BME280;59829;50.562;6.258;2024-03-08T22:31:26;94560.19;;;12.16;68.95
71956;BME280;59829;50.562;6.258;2024-03-08T22:41:28;94561.16;;;12.15;68.98
71956;BME280;59829;50.562;6.258;2024-03-08T22:51:30;94538.06;;;12.15;68.96
71956;BME280;59829;50.562;6.258;2024-03-08T23:01:30;94538.06;;;12.15;68.91
71956;BME280;59829;50.562;6.258;2024-03-08T23:11:34;94527.78;;;12.15;68.87
71956;BME280;59829;50.562;6.258;2024-03-08T23:21:34;94510.75;;;12.14;68.96
71956;BME280;59829;50.562;6.258;2024-03-08T23:31:34;94510.75;;;12.14;68.96
71956;BME280;59829;50.562;6.258;2024-03-08T23:41:35;94492.78;;;12.14;68.94
71956;BME280;59829;50.562;6.258;2024-03-08T23:51:38;94526.94;;;12.15;69.00
